createdAt,value
2018-09-01T00:01:04.588Z,95936.53
2018-09-01T00:03:39.320Z,95933.48
2018-09-01T00:06:14.204Z,95933.08
2018-09-01T00:08:48.618Z,95945.36
2018-09-01T00:11:23.460Z,95942.95
2018-09-01T00:13:58.163Z,95945.36
2018-09-01T00:16:32.436Z,95932.77
2018-09-01T00:19:07.436Z,95929.05
2018-09-01T00:21:41.911Z,95931.13
2018-09-01T00:24:16.519Z,95924.92
2018-09-01T00:26:51.391Z,95935.09
2018-09-01T00:29:26.107Z,95932.38
2018-09-01T00:32:01.479Z,95933.48
2018-09-01T00:34:36.436Z,95929.66
2018-09-01T00:37:11.326Z,95931.13
2018-09-01T00:39:46.392Z,95921.37
2018-09-01T00:42:21.276Z,95929.02
2018-09-01T00:44:55.809Z,95938.21
2018-09-01T00:47:30.224Z,95934.09
2018-09-01T00:50:04.757Z,95941.64
2018-09-01T00:52:39.578Z,95938.19
2018-09-01T00:55:19.908Z,95942.71
2018-09-01T00:57:54.635Z,95941.20
2018-09-01T01:00:29.548Z,95942.38
2018-09-01T01:03:04.452Z,95947.11
2018-09-01T01:05:39.556Z,95939.80
2018-09-01T01:08:14.211Z,95941.44
2018-09-01T01:10:49.001Z,95945.13
2018-09-01T01:13:23.725Z,95946.54
2018-09-01T01:15:58.231Z,95942.91
2018-09-01T01:18:32.664Z,95937.38
2018-09-01T01:21:07.060Z,95938.08
2018-09-01T01:23:42.103Z,95933.55
2018-09-01T01:26:16.847Z,95929.83
2018-09-01T01:28:51.914Z,95937.08
2018-09-01T01:31:26.451Z,95928.78
2018-09-01T01:34:01.047Z,95932.07
2018-09-01T01:36:35.333Z,95928.98
2018-09-01T01:39:10.172Z,95922.08
2018-09-01T01:41:45.072Z,95926.09
2018-09-01T01:44:19.588Z,95924.83
2018-09-01T01:46:54.658Z,95927.73
2018-09-01T01:49:29.135Z,95926.23
2018-09-01T01:52:04.211Z,95924.76
2018-09-01T01:54:38.883Z,95922.00
2018-09-01T01:57:13.380Z,95919.19
2018-09-01T01:59:47.712Z,95923.01
2018-09-01T02:02:22.043Z,95926.94
2018-09-01T02:04:56.855Z,95927.95
2018-09-01T02:07:31.336Z,95929.55
2018-09-01T02:10:06.076Z,95933.94
2018-09-01T02:12:41.341Z,95931.02
2018-09-01T02:15:15.851Z,95920.34
2018-09-01T02:17:50.880Z,95925.38
2018-09-01T02:20:25.719Z,95929.52
2018-09-01T02:23:00.410Z,95929.65
2018-09-01T02:25:34.992Z,95930.95
2018-09-01T02:28:10.231Z,95930.76
2018-09-01T02:30:44.980Z,95929.14
2018-09-01T02:33:19.765Z,95931.92
2018-09-01T02:35:54.115Z,95927.19
2018-09-01T02:38:28.759Z,95931.67
2018-09-01T02:41:03.932Z,95929.86
2018-09-01T02:43:38.215Z,95934.08
2018-09-01T02:46:13.552Z,95938.00
2018-09-01T02:48:48.300Z,95943.64
2018-09-01T02:51:22.991Z,95943.44
2018-09-01T02:53:57.451Z,95947.45
2018-09-01T02:56:32.775Z,95943.50
2018-09-01T02:59:07.639Z,95936.25
2018-09-01T03:01:42.692Z,95939.27
2018-09-01T03:04:17.587Z,95940.97
2018-09-01T03:06:59.660Z,95940.56
2018-09-01T03:09:34.055Z,95950.03
2018-09-01T03:12:08.498Z,95949.38
2018-09-01T03:14:44.125Z,95944.34
2018-09-01T03:17:18.519Z,95940.20
2018-09-01T03:19:53.224Z,95946.05
2018-09-01T03:22:27.854Z,95946.84
2018-09-01T03:25:02.425Z,95947.17
2018-09-01T03:27:37.175Z,95944.25
2018-09-01T03:30:11.957Z,95940.31
2018-09-01T03:32:46.967Z,95940.72
2018-09-01T03:35:21.563Z,95942.73
2018-09-01T03:37:56.166Z,95945.83
2018-09-01T03:40:31.312Z,95937.68
2018-09-01T03:43:06.108Z,95950.47
2018-09-01T03:45:40.854Z,95948.59
2018-09-01T03:48:15.203Z,95949.73
2018-09-01T03:50:50.113Z,95949.30
2018-09-01T03:53:25.011Z,95953.02
2018-09-01T03:55:59.988Z,95952.60
2018-09-01T03:58:34.578Z,95939.44
2018-09-01T04:01:09.379Z,95942.70
2018-09-01T04:03:43.761Z,95935.05
2018-09-01T04:06:18.748Z,95938.98
2018-09-01T04:08:53.330Z,95941.59
2018-09-01T04:11:27.660Z,95933.64
2018-09-01T04:14:02.687Z,95930.77
2018-09-01T04:16:37.356Z,95936.84
2018-09-01T04:19:16.578Z,95942.68
2018-09-01T04:21:52.169Z,95942.66
2018-09-01T04:24:27.083Z,95936.88
2018-09-01T04:27:01.599Z,95929.64
2018-09-01T04:29:36.349Z,95926.88
2018-09-01T04:32:10.969Z,95930.91
2018-09-01T04:34:45.673Z,95930.39
2018-09-01T04:37:20.287Z,95928.14
2018-09-01T04:39:55.016Z,95931.84
2018-09-01T04:42:29.864Z,95924.11
2018-09-01T04:45:05.255Z,95928.89
2018-09-01T04:47:39.711Z,95923.58
2018-09-01T04:50:15.020Z,95924.61
2018-09-01T04:52:49.749Z,95919.27
2018-09-01T04:55:24.772Z,95931.22
2018-09-01T04:57:59.295Z,95929.64
2018-09-01T05:00:33.800Z,95934.56
2018-09-01T05:03:08.655Z,95932.17
2018-09-01T05:05:43.363Z,95941.20
2018-09-01T05:08:18.095Z,95936.66
2018-09-01T05:10:53.136Z,95930.39
2018-09-01T05:13:27.835Z,95932.14
2018-09-01T05:16:02.580Z,95936.27
2018-09-01T05:18:37.575Z,95933.84
2018-09-01T05:21:12.566Z,95929.34
2018-09-01T05:23:47.803Z,95925.78
2018-09-01T05:26:22.755Z,95933.03
2018-09-01T05:28:57.370Z,95939.09
2018-09-01T05:31:32.568Z,95936.78
2018-09-01T05:34:07.096Z,95941.09
2018-09-01T05:36:41.666Z,95936.34
2018-09-01T05:39:17.024Z,95947.69
2018-09-01T05:41:51.375Z,95953.92
2018-09-01T05:44:26.056Z,95962.20
2018-09-01T05:47:00.438Z,95962.46
2018-09-01T05:49:35.043Z,95963.57
2018-09-01T05:52:09.380Z,95973.14
2018-09-01T05:54:43.856Z,95974.53
2018-09-01T05:57:18.217Z,95969.85
2018-09-01T05:59:53.409Z,95980.50
2018-09-01T06:02:27.906Z,95980.09
2018-09-01T06:05:02.228Z,95973.05
2018-09-01T06:07:36.881Z,95967.80
2018-09-01T06:10:12.139Z,95973.55
2018-09-01T06:12:46.663Z,95975.80
2018-09-01T06:15:21.536Z,95974.86
2018-09-01T06:17:56.249Z,95976.60
2018-09-01T06:20:30.959Z,95968.84
2018-09-01T06:23:05.851Z,95970.65
2018-09-01T06:25:40.198Z,95973.65
2018-09-01T06:28:18.076Z,95969.73
2018-09-01T06:30:53.711Z,95978.77
2018-09-01T06:33:28.539Z,95973.66
2018-09-01T06:36:05.612Z,95971.36
2018-09-01T06:38:40.244Z,95973.23
2018-09-01T06:41:14.712Z,95970.65
2018-09-01T06:43:49.640Z,95972.27
2018-09-01T06:46:24.011Z,95967.30
2018-09-01T06:48:58.699Z,95965.73
2018-09-01T06:51:33.178Z,95968.74
2018-09-01T06:54:08.283Z,95966.82
2018-09-01T06:56:43.240Z,95964.67
2018-09-01T06:59:17.816Z,95974.03
2018-09-01T07:01:52.326Z,95985.23
2018-09-01T07:04:26.851Z,95987.71
2018-09-01T07:07:01.652Z,95992.08
2018-09-01T07:09:36.174Z,95994.75
2018-09-01T07:12:11.013Z,95993.55
2018-09-01T07:14:45.694Z,95998.11
2018-09-01T07:17:20.103Z,96004.00
2018-09-01T07:19:54.552Z,96015.03
2018-09-01T07:22:29.215Z,96013.54
2018-09-01T07:25:03.672Z,96015.27
2018-09-01T07:27:38.440Z,96015.34
2018-09-01T07:30:13.132Z,96024.64
2018-09-01T07:32:47.666Z,96018.50
2018-09-01T07:35:22.704Z,96027.91
2018-09-01T07:37:57.311Z,96029.14
2018-09-01T07:40:31.915Z,96030.87
2018-09-01T07:43:06.946Z,96042.59
2018-09-01T07:45:41.684Z,96038.52
2018-09-01T07:48:16.178Z,96037.44
2018-09-01T07:50:50.712Z,96040.32
2018-09-01T07:53:25.463Z,96033.27
2018-09-01T07:56:00.345Z,96032.40
2018-09-01T07:58:35.108Z,96029.23
2018-09-01T08:01:10.206Z,96027.84
2018-09-01T08:03:45.012Z,96025.84
2018-09-01T08:06:19.680Z,96033.50
2018-09-01T08:08:54.096Z,96031.08
2018-09-01T08:11:42.380Z,96038.92
2018-09-01T08:14:17.276Z,96038.38
2018-09-01T08:16:52.764Z,96045.05
2018-09-01T08:19:27.340Z,96051.08
2018-09-01T08:22:02.411Z,96061.34
2018-09-01T08:24:37.855Z,96054.49
2018-09-01T08:27:12.745Z,96058.81
2018-09-01T08:29:47.188Z,96061.11
2018-09-01T08:32:21.900Z,96071.03
2018-09-01T08:34:56.647Z,96076.06
2018-09-01T08:37:31.192Z,96070.22
2018-09-01T08:40:05.990Z,96065.73
2018-09-01T08:42:40.884Z,96077.22
2018-09-01T08:45:15.988Z,96070.30
2018-09-01T08:47:50.868Z,96069.56
2018-09-01T08:50:25.418Z,96071.16
2018-09-01T08:53:00.102Z,96078.64
2018-09-01T08:55:34.557Z,96082.13
2018-09-01T08:58:08.988Z,96075.31
2018-09-01T09:00:43.579Z,96072.02
2018-09-01T09:03:18.531Z,96079.39
2018-09-01T09:05:53.063Z,96080.87
2018-09-01T09:08:27.878Z,96089.41
2018-09-01T09:11:03.475Z,96088.83
2018-09-01T09:13:39.027Z,96087.59
2018-09-01T09:16:14.616Z,96079.53
2018-09-01T09:18:50.016Z,96086.31
2018-09-01T09:21:24.848Z,96090.31
2018-09-01T09:23:59.291Z,96093.13
2018-09-01T09:26:34.291Z,96095.05
2018-09-01T09:29:08.903Z,96093.63
2018-09-01T09:31:43.415Z,96094.51
2018-09-01T09:34:17.855Z,96096.13
2018-09-01T09:36:52.683Z,96089.63
2018-09-01T09:39:27.635Z,96082.59
2018-09-01T09:42:02.393Z,96077.45
2018-09-01T09:44:37.608Z,96077.06
2018-09-01T09:47:12.177Z,96079.81
2018-09-01T09:49:46.770Z,96079.14
2018-09-01T09:52:21.056Z,96085.12
2018-09-01T09:54:56.751Z,96087.07
2018-09-01T09:57:32.343Z,96085.30
2018-09-01T10:00:07.423Z,96083.98
2018-09-01T10:02:41.735Z,96082.50
2018-09-01T10:05:18.239Z,96081.89
2018-09-01T10:07:58.059Z,96086.48
2018-09-01T10:10:32.524Z,96094.01
2018-09-01T10:13:06.963Z,96094.98
2018-09-01T10:15:41.413Z,96098.39
2018-09-01T10:18:16.315Z,96092.16
2018-09-01T10:20:50.895Z,96097.87
2018-09-01T10:23:25.535Z,96093.75
2018-09-01T10:25:59.929Z,96095.95
2018-09-01T10:28:35.035Z,96092.41
2018-09-01T10:31:10.555Z,96090.23
2018-09-01T10:33:45.236Z,96101.27
2018-09-01T10:36:19.850Z,96101.60
2018-09-01T10:38:54.560Z,96100.86
2018-09-01T10:41:29.280Z,96111.02
2018-09-01T10:44:04.535Z,96116.36
2018-09-01T10:46:39.166Z,96117.05
2018-09-01T10:49:14.007Z,96123.84
2018-09-01T10:51:48.324Z,96116.16
2018-09-01T10:54:22.828Z,96123.75
2018-09-01T10:56:57.204Z,96124.52
2018-09-01T10:59:31.853Z,96119.52
2018-09-01T11:02:07.364Z,96129.84
2018-09-01T11:04:41.858Z,96126.76
2018-09-01T11:07:16.369Z,96131.98
2018-09-01T11:09:51.064Z,96133.88
2018-09-01T11:12:25.643Z,96129.80
2018-09-01T11:15:00.348Z,96135.66
2018-09-01T11:17:34.832Z,96136.28
2018-09-01T11:20:10.218Z,96140.56
2018-09-01T11:22:45.170Z,96138.05
2018-09-01T11:25:19.619Z,96144.89
2018-09-01T11:27:54.665Z,96145.15
2018-09-01T11:30:29.497Z,96141.02
2018-09-01T11:33:04.627Z,96144.13
2018-09-01T11:35:39.940Z,96140.52
2018-09-01T11:38:14.796Z,96133.12
2018-09-01T11:40:49.287Z,96136.52
2018-09-01T11:43:23.694Z,96133.16
2018-09-01T11:45:58.389Z,96133.52
2018-09-01T11:48:33.125Z,96138.30
2018-09-01T11:51:07.935Z,96137.02
2018-09-01T11:53:42.673Z,96138.44
2018-09-01T11:56:17.242Z,96141.92
2018-09-01T11:58:52.621Z,96141.61
2018-09-01T12:01:27.987Z,96145.30
2018-09-01T12:04:02.632Z,96152.20
2018-09-01T12:06:37.370Z,96148.40
2018-09-01T12:09:12.027Z,96155.22
2018-09-01T12:11:47.058Z,96161.05
2018-09-01T12:14:21.687Z,96159.68
2018-09-01T12:16:56.094Z,96169.23
2018-09-01T12:19:31.216Z,96169.73
2018-09-01T12:22:06.232Z,96169.47
2018-09-01T12:24:41.001Z,96175.17
2018-09-01T12:27:15.620Z,96173.16
2018-09-01T12:29:50.212Z,96173.03
2018-09-01T12:32:24.584Z,96165.20
2018-09-01T12:34:59.590Z,96167.48
2018-09-01T12:37:34.091Z,96154.55
2018-09-01T12:40:09.055Z,96157.31
2018-09-01T12:42:43.405Z,96161.94
2018-09-01T12:45:17.900Z,96161.38
2018-09-01T12:47:52.453Z,96159.49
2018-09-01T12:50:26.944Z,96159.27
2018-09-01T12:53:01.424Z,96160.80
2018-09-01T12:55:36.044Z,96172.45
2018-09-01T12:58:10.519Z,96180.39
2018-09-01T13:00:45.425Z,96181.89
2018-09-01T13:03:20.512Z,96169.54
2018-09-01T13:05:55.094Z,96168.83
2018-09-01T13:08:29.516Z,96161.05
2018-09-01T13:11:04.516Z,96157.15
2018-09-01T13:13:39.316Z,96157.58
2018-09-01T13:16:14.948Z,96162.00
2018-09-01T13:18:49.399Z,96155.12
2018-09-01T13:21:23.862Z,96161.39
2018-09-01T13:23:58.160Z,96160.78
2018-09-01T13:26:32.573Z,96164.92
2018-09-01T13:29:07.595Z,96174.56
2018-09-01T13:31:42.319Z,96170.49
2018-09-01T13:34:16.917Z,96171.23
2018-09-01T13:36:52.063Z,96172.93
2018-09-01T13:39:26.827Z,96175.31
2018-09-01T13:42:01.355Z,96178.69
2018-09-01T13:44:36.140Z,96183.53
2018-09-01T13:47:10.876Z,96188.81
2018-09-01T13:49:45.711Z,96189.13
2018-09-01T13:52:20.428Z,96198.34
2018-09-01T13:54:55.098Z,96195.16
2018-09-01T13:57:29.764Z,96191.74
2018-09-01T14:00:06.756Z,96190.87
2018-09-01T14:02:41.660Z,96191.74
2018-09-01T14:05:16.476Z,96194.67
2018-09-01T14:07:51.261Z,96198.53
2018-09-01T14:10:26.307Z,96197.34
2018-09-01T14:13:00.744Z,96202.83
2018-09-01T14:15:35.437Z,96201.66
2018-09-01T14:18:10.079Z,96201.97
2018-09-01T14:20:44.938Z,96198.10
2018-09-01T14:23:19.556Z,96202.28
2018-09-01T14:25:54.016Z,96193.06
2018-09-01T14:28:28.748Z,96197.36
2018-09-01T14:31:03.243Z,96201.16
2018-09-01T14:33:37.694Z,96198.59
2018-09-01T14:36:12.053Z,96195.23
2018-09-01T14:38:46.576Z,96193.63
2018-09-01T14:41:21.161Z,96181.03
2018-09-01T14:43:55.579Z,96185.03
2018-09-01T14:46:30.766Z,96199.65
2018-09-01T14:49:06.316Z,96197.41
2018-09-01T14:51:41.332Z,96193.06
2018-09-01T14:54:15.732Z,96200.03
2018-09-01T14:56:50.088Z,96196.55
2018-09-01T14:59:24.709Z,96196.25
2018-09-01T15:01:59.444Z,96192.02
2018-09-01T15:04:34.347Z,96197.36
2018-09-01T15:07:09.061Z,96198.09
2018-09-01T15:09:43.975Z,96194.61
2018-09-01T15:12:18.663Z,96199.22
2018-09-01T15:14:53.444Z,96197.95
2018-09-01T15:17:28.412Z,96188.64
2018-09-01T15:20:04.025Z,96189.39
2018-09-01T15:22:38.551Z,96182.59
2018-09-01T15:25:13.800Z,96189.27
2018-09-01T15:27:48.272Z,96190.45
2018-09-01T15:30:22.682Z,96194.18
2018-09-01T15:32:57.715Z,96192.88
2018-09-01T15:35:32.470Z,96199.67
2018-09-01T15:38:08.186Z,96198.60
2018-09-01T15:40:42.719Z,96207.12
2018-09-01T15:43:17.388Z,96214.72
2018-09-01T15:45:51.903Z,96209.73
2018-09-01T15:48:26.184Z,96214.03
2018-09-01T15:51:01.074Z,96210.23
2018-09-01T15:53:36.020Z,96205.57
2018-09-01T15:56:10.670Z,96201.56
2018-09-01T15:58:45.415Z,96204.30
2018-09-01T16:01:19.963Z,96206.83
2018-09-01T16:03:54.371Z,96211.24
2018-09-01T16:06:28.835Z,96210.44
2018-09-01T16:09:04.707Z,96215.34
2018-09-01T16:11:39.267Z,96215.59
2018-09-01T16:14:13.940Z,96217.46
2018-09-01T16:16:48.503Z,96210.72
2018-09-01T16:19:23.363Z,96207.14
2018-09-01T16:21:58.156Z,96208.97
2018-09-01T16:24:32.715Z,96215.31
2018-09-01T16:27:07.755Z,96214.81
2018-09-01T16:29:42.105Z,96218.61
2018-09-01T16:34:57.384Z,96220.67
2018-09-01T16:37:32.142Z,96216.62
2018-09-01T16:40:06.930Z,96218.67
2018-09-01T16:42:41.792Z,96214.98
2018-09-01T16:45:16.284Z,96223.50
2018-09-01T16:47:50.854Z,96225.43
2018-09-01T16:50:25.899Z,96213.36
2018-09-01T16:53:00.332Z,96217.12
2018-09-01T16:55:34.678Z,96217.68
2018-09-01T16:58:09.400Z,96217.22
2018-09-01T17:00:44.187Z,96220.07
2018-09-01T17:03:18.968Z,96216.97
2018-09-01T17:05:53.387Z,96211.92
2018-09-01T17:08:28.215Z,96214.66
2018-09-01T17:11:03.814Z,96211.98
2018-09-01T17:13:38.574Z,96217.08
2018-09-01T17:16:13.415Z,96210.74
2018-09-01T17:18:51.920Z,96216.89
2018-09-01T17:21:26.261Z,96215.16
2018-09-01T17:24:00.700Z,96221.63
2018-09-01T17:26:35.071Z,96223.67
2018-09-01T17:29:09.372Z,96227.97
2018-09-01T17:31:44.355Z,96222.84
2018-09-01T17:34:18.995Z,96220.57
2018-09-01T17:36:53.640Z,96224.61
2018-09-01T17:39:28.144Z,96221.13
2018-09-01T17:42:02.675Z,96224.30
2018-09-01T17:44:37.326Z,96221.25
2018-09-01T17:47:11.943Z,96221.68
2018-09-01T17:49:46.256Z,96226.09
2018-09-01T17:52:20.931Z,96233.02
2018-09-01T17:54:55.444Z,96228.97
2018-09-01T17:57:30.396Z,96225.81
2018-09-01T18:00:05.287Z,96219.20
2018-09-01T18:02:39.778Z,96217.28
2018-09-01T18:05:15.499Z,96225.42
2018-09-01T18:07:50.136Z,96235.13
2018-09-01T18:10:25.096Z,96231.01
2018-09-01T18:13:00.263Z,96235.36
2018-09-01T18:15:35.375Z,96238.98
2018-09-01T18:18:09.928Z,96243.02
2018-09-01T18:20:44.932Z,96249.86
2018-09-01T18:23:19.480Z,96245.88
2018-09-01T18:25:53.776Z,96246.52
2018-09-01T18:28:28.263Z,96256.66
2018-09-01T18:31:02.750Z,96257.83
2018-09-01T18:33:37.230Z,96255.14
2018-09-01T18:36:11.722Z,96261.05
2018-09-01T18:38:46.951Z,96259.81
2018-09-01T18:41:22.099Z,96258.33
2018-09-01T18:43:56.742Z,96261.98
2018-09-01T18:46:31.659Z,96260.86
2018-09-01T18:49:07.881Z,96267.26
2018-09-01T18:51:43.256Z,96273.19
2018-09-01T18:54:18.089Z,96270.76
2018-09-01T18:56:52.921Z,96273.92
2018-09-01T18:59:27.409Z,96274.44
2018-09-01T19:02:01.756Z,96274.93
2018-09-01T19:04:36.089Z,96276.06
2018-09-01T19:07:11.119Z,96280.27
2018-09-01T19:09:45.627Z,96280.81
2018-09-01T19:12:20.770Z,96279.90
2018-09-01T19:14:56.018Z,96281.76
2018-09-01T19:17:30.329Z,96276.09
2018-09-01T19:20:05.297Z,96276.34
2018-09-01T19:22:39.842Z,96278.95
2018-09-01T19:25:14.756Z,96281.75
2018-09-01T19:27:49.486Z,96278.27
2018-09-01T19:30:23.879Z,96281.63
2018-09-01T19:32:58.694Z,96276.64
2018-09-01T19:35:33.583Z,96277.36
2018-09-01T19:38:07.875Z,96276.88
2018-09-01T19:40:42.643Z,96281.27
2018-09-01T19:43:17.399Z,96285.56
2018-09-01T19:45:52.544Z,96282.73
2018-09-01T19:48:27.469Z,96285.92
2018-09-01T19:51:02.091Z,96285.11
2018-09-01T19:53:36.950Z,96285.61
2018-09-01T19:56:11.387Z,96280.08
2018-09-01T19:58:45.807Z,96279.77
2018-09-01T20:01:20.300Z,96272.30
2018-09-01T20:03:55.403Z,96276.52
2018-09-01T20:06:30.339Z,96276.53
2018-09-01T20:09:05.754Z,96273.34
2018-09-01T20:11:40.132Z,96273.16
2018-09-01T20:14:15.191Z,96268.52
2018-09-01T20:16:51.083Z,96265.47
2018-09-01T20:19:26.193Z,96262.34
2018-09-01T20:22:00.852Z,96265.54
2018-09-01T20:24:35.308Z,96261.05
2018-09-01T20:27:10.568Z,96259.78
2018-09-01T20:29:45.395Z,96268.78
2018-09-01T20:32:20.216Z,96266.58
2018-09-01T20:34:58.836Z,96261.55
2018-09-01T20:37:33.508Z,96254.44
2018-09-01T20:40:08.144Z,96267.13
2018-09-01T20:42:42.882Z,96268.34
2018-09-01T20:45:18.091Z,96270.86
2018-09-01T20:47:52.895Z,96275.95
2018-09-01T20:50:27.864Z,96273.61
2018-09-01T20:53:02.323Z,96277.16
2018-09-01T20:55:42.587Z,96276.16
2018-09-01T20:58:17.245Z,96276.47
2018-09-01T21:00:52.103Z,96274.23
2018-09-01T21:03:26.858Z,96280.78
2018-09-01T21:06:01.432Z,96281.29
2018-09-01T21:08:36.218Z,96278.80
2018-09-01T21:11:10.850Z,96281.05
2018-09-01T21:13:45.175Z,96272.67
2018-09-01T21:16:20.023Z,96270.16
2018-09-01T21:18:55.254Z,96274.93
2018-09-01T21:21:29.658Z,96267.10
2018-09-01T21:24:04.439Z,96264.50
2018-09-01T21:26:39.143Z,96274.00
2018-09-01T21:29:14.035Z,96268.02
2018-09-01T21:31:48.800Z,96270.27
2018-09-01T21:34:23.244Z,96270.55
2018-09-01T21:36:58.275Z,96267.73
2018-09-01T21:39:32.979Z,96266.30
2018-09-01T21:42:07.980Z,96265.50
2018-09-01T21:44:42.274Z,96263.83
2018-09-01T21:47:17.047Z,96253.69
2018-09-01T21:49:52.452Z,96256.16
2018-09-01T21:52:27.050Z,96253.44
2018-09-01T21:55:02.179Z,96253.26
2018-09-01T21:57:36.935Z,96246.69
2018-09-01T22:00:11.372Z,96239.89
2018-09-01T22:02:45.973Z,96241.77
2018-09-01T22:05:21.123Z,96241.13
2018-09-01T22:07:55.563Z,96233.56
2018-09-01T22:10:30.355Z,96240.45
2018-09-01T22:13:05.179Z,96234.73
2018-09-01T22:15:39.727Z,96226.98
2018-09-01T22:18:14.999Z,96230.91
2018-09-01T22:20:49.691Z,96223.05
2018-09-01T22:23:24.310Z,96222.86
2018-09-01T22:25:58.730Z,96216.28
2018-09-01T22:28:33.892Z,96220.94
2018-09-01T22:31:09.801Z,96218.35
2018-09-01T22:33:45.556Z,96220.96
2018-09-01T22:36:20.303Z,96223.00
2018-09-01T22:38:54.796Z,96221.45
2018-09-01T22:41:29.551Z,96219.84
2018-09-01T22:44:04.016Z,96225.42
2018-09-01T22:46:39.351Z,96220.46
2018-09-01T22:49:14.031Z,96228.77
2018-09-01T22:51:48.749Z,96218.95
2018-09-01T22:54:23.855Z,96220.70
2018-09-01T22:56:58.963Z,96219.03
2018-09-01T22:59:33.343Z,96224.20
2018-09-01T23:02:08.536Z,96214.72
2018-09-01T23:04:43.207Z,96214.54
2018-09-01T23:07:18.011Z,96219.45
2018-09-01T23:09:52.779Z,96218.95
2018-09-01T23:12:27.170Z,96215.11
2018-09-01T23:15:01.629Z,96218.53
2018-09-01T23:17:36.095Z,96219.34
2018-09-01T23:20:11.261Z,96220.45
2018-09-01T23:22:46.037Z,96220.75
2018-09-01T23:25:20.793Z,96222.49
2018-09-01T23:27:55.874Z,96220.56
2018-09-01T23:30:30.343Z,96219.87
2018-09-01T23:33:05.363Z,96207.63
2018-09-01T23:35:39.919Z,96212.91
2018-09-01T23:38:14.948Z,96204.61
2018-09-01T23:40:50.022Z,96213.75
2018-09-01T23:43:25.120Z,96208.65
2018-09-01T23:45:59.599Z,96214.53
2018-09-01T23:48:34.111Z,96215.86
2018-09-01T23:51:08.791Z,96204.73
2018-09-01T23:53:43.726Z,96203.42
2018-09-01T23:56:18.888Z,96199.30
2018-09-01T23:58:53.735Z,96192.45
